Main page
METAR-TAF:

METAR-TAF

Airports :

City of Derry Airport

Derry, Northern Ireland

latitude: 55-03N, longitude: 007-09W, elevation: 9 m

Current weather observation

The report was made 1 hour and 4 minutes ago, at 21:50 UTC
Wind 13 kt from the West/Southwest
Temperature 11°C
Humidity 82%
Pressure 1012 hPa
Visibility 10 km or more
Few clouds at a height of 1500 ft
Scattered clouds at a height of 2800 ft

METAR: EGAE 252150Z 25013KT 9999 FEW015 SCT028 11/08 Q1012

Time: 23:54 (22:54 UTC)

Forecast

The report was made 1 hour and 48 minutes ago, at 21:06 UTC
Forecast valid from 25 at 21 UTC to 25 at 23 UTC
Wind 12 kt from the Southwest
Visibility 10 km or more
Few clouds at a height of 2000 ft
Scattered clouds at a height of 4000 ft

TAF: EGAE 252106Z 2521/2523 23012KT 9999 FEW020 SCT040

Weather observations and forecasts of more than 4000 airports (METAR and TAF reports).

The available stations are represented by yellow and red dots on the map.

Hover mouse over dot to see the name of the station.

Then click to see weather observations and forecasts.

To change the map : click on the green buttons with a black cross to zoom in, on the green button with a dash to zoom out, or on the green arrows for adjacent maps.


METAR-TAF: